sensor_id;sensor_type;location;lat;lon;timestamp;P1;durP1;ratioP1;P2;durP2;ratioP2
30862;SDS011;17573;55.922;37.540;2023-02-16T00:01:27;5.43;;;4.97;;
30862;SDS011;17573;55.922;37.540;2023-02-16T00:03:54;6.93;;;4.78;;
30862;SDS011;17573;55.922;37.540;2023-02-16T00:06:22;5.10;;;4.60;;
30862;SDS011;17573;55.922;37.540;2023-02-16T00:08:49;4.75;;;4.35;;
30862;SDS011;17573;55.922;37.540;2023-02-16T00:11:17;5.60;;;4.30;;
30862;SDS011;17573;55.922;37.540;2023-02-16T00:14:16;4.00;;;3.70;;
30862;SDS011;17573;55.922;37.540;2023-02-16T00:16:42;5.68;;;5.07;;
30862;SDS011;17573;55.922;37.540;2023-02-16T00:19:24;6.70;;;4.72;;
30862;SDS011;17573;55.922;37.540;2023-02-16T00:21:52;6.85;;;4.88;;
30862;SDS011;17573;55.922;37.540;2023-02-16T00:24:19;7.70;;;4.68;;
30862;SDS011;17573;55.922;37.540;2023-02-16T00:26:46;5.32;;;4.22;;
30862;SDS011;17573;55.922;37.540;2023-02-16T00:29:19;4.93;;;4.40;;
30862;SDS011;17573;55.922;37.540;2023-02-16T00:31:46;6.40;;;4.45;;
30862;SDS011;17573;55.922;37.540;2023-02-16T00:34:26;4.80;;;4.30;;
30862;SDS011;17573;55.922;37.540;2023-02-16T00:37:08;4.90;;;4.43;;
30862;SDS011;17573;55.922;37.540;2023-02-16T00:39:35;6.53;;;4.70;;
30862;SDS011;17573;55.922;37.540;2023-02-16T00:42:09;4.60;;;4.15;;
30862;SDS011;17573;55.922;37.540;2023-02-16T00:49:43;5.07;;;4.53;;
30862;SDS011;17573;55.922;37.540;2023-02-16T00:52:31;4.75;;;4.32;;
30862;SDS011;17573;55.922;37.540;2023-02-16T00:55:00;6.88;;;5.45;;
30862;SDS011;17573;55.922;37.540;2023-02-16T00:57:30;5.70;;;5.18;;
30862;SDS011;17573;55.922;37.540;2023-02-16T00:59:59;8.32;;;5.28;;
30862;SDS011;17573;55.922;37.540;2023-02-16T01:02:30;6.10;;;5.07;;
30862;SDS011;17573;55.922;37.540;2023-02-16T01:04:56;4.93;;;4.53;;
30862;SDS011;17573;55.922;37.540;2023-02-16T01:07:22;5.43;;;4.55;;
30862;SDS011;17573;55.922;37.540;2023-02-16T01:10:07;8.32;;;6.25;;
30862;SDS011;17573;55.922;37.540;2023-02-16T01:12:53;5.90;;;5.43;;
30862;SDS011;17573;55.922;37.540;2023-02-16T01:15:21;6.38;;;5.78;;
30862;SDS011;17573;55.922;37.540;2023-02-16T01:17:47;8.77;;;4.85;;
30862;SDS011;17573;55.922;37.540;2023-02-16T01:20:17;9.38;;;5.63;;
30862;SDS011;17573;55.922;37.540;2023-02-16T01:22:44;7.47;;;5.82;;
30862;SDS011;17573;55.922;37.540;2023-02-16T01:25:10;8.80;;;5.25;;
30862;SDS011;17573;55.922;37.540;2023-02-16T01:27:38;6.25;;;5.60;;
30862;SDS011;17573;55.922;37.540;2023-02-16T01:30:05;4.97;;;4.57;;
30862;SDS011;17573;55.922;37.540;2023-02-16T01:32:43;7.68;;;4.95;;
30862;SDS011;17573;55.922;37.540;2023-02-16T01:35:33;5.50;;;5.05;;
30862;SDS011;17573;55.922;37.540;2023-02-16T01:37:59;6.85;;;4.47;;
30862;SDS011;17573;55.922;37.540;2023-02-16T01:45:47;6.78;;;4.95;;
30862;SDS011;17573;55.922;37.540;2023-02-16T01:48:27;9.40;;;5.10;;
30862;SDS011;17573;55.922;37.540;2023-02-16T01:51:04;7.00;;;4.72;;
30862;SDS011;17573;55.922;37.540;2023-02-16T01:53:39;6.20;;;5.60;;
30862;SDS011;17573;55.922;37.540;2023-02-16T01:56:36;5.97;;;5.25;;
30862;SDS011;17573;55.922;37.540;2023-02-16T01:59:02;6.78;;;6.03;;
30862;SDS011;17573;55.922;37.540;2023-02-16T02:04:56;5.38;;;4.88;;
30862;SDS011;17573;55.922;37.540;2023-02-16T02:07:26;6.60;;;5.47;;
30862;SDS011;17573;55.922;37.540;2023-02-16T02:10:01;6.82;;;5.35;;
30862;SDS011;17573;55.922;37.540;2023-02-16T02:15:10;6.82;;;6.03;;
30862;SDS011;17573;55.922;37.540;2023-02-16T02:17:37;7.28;;;5.95;;
30862;SDS011;17573;55.922;37.540;2023-02-16T02:20:15;6.97;;;6.15;;
30862;SDS011;17573;55.922;37.540;2023-02-16T02:22:57;9.27;;;5.13;;
30862;SDS011;17573;55.922;37.540;2023-02-16T02:28:18;6.28;;;5.63;;
30862;SDS011;17573;55.922;37.540;2023-02-16T02:30:54;6.45;;;5.78;;
30862;SDS011;17573;55.922;37.540;2023-02-16T02:38:49;8.05;;;6.10;;
30862;SDS011;17573;55.922;37.540;2023-02-16T02:44:26;6.22;;;5.63;;
30862;SDS011;17573;55.922;37.540;2023-02-16T02:46:53;5.88;;;5.28;;
30862;SDS011;17573;55.922;37.540;2023-02-16T02:49:19;6.55;;;6.00;;
30862;SDS011;17573;55.922;37.540;2023-02-16T02:51:46;7.97;;;5.22;;
30862;SDS011;17573;55.922;37.540;2023-02-16T02:54:13;7.45;;;5.13;;
30862;SDS011;17573;55.922;37.540;2023-02-16T02:59:57;5.63;;;5.13;;
30862;SDS011;17573;55.922;37.540;2023-02-16T03:02:46;8.90;;;5.75;;
30862;SDS011;17573;55.922;37.540;2023-02-16T03:05:14;5.50;;;4.10;;
30862;SDS011;17573;55.922;37.540;2023-02-16T03:07:41;6.30;;;5.50;;
30862;SDS011;17573;55.922;37.540;2023-02-16T03:10:22;6.32;;;5.53;;
30862;SDS011;17573;55.922;37.540;2023-02-16T03:13:20;5.68;;;5.10;;
30862;SDS011;17573;55.922;37.540;2023-02-16T03:15:48;7.75;;;5.90;;
30862;SDS011;17573;55.922;37.540;2023-02-16T03:18:20;6.13;;;5.35;;
30862;SDS011;17573;55.922;37.540;2023-02-16T03:21:07;7.40;;;5.15;;
30862;SDS011;17573;55.922;37.540;2023-02-16T03:23:52;6.93;;;6.22;;
30862;SDS011;17573;55.922;37.540;2023-02-16T03:26:37;6.30;;;5.72;;
30862;SDS011;17573;55.922;37.540;2023-02-16T03:29:22;5.78;;;4.93;;
30862;SDS011;17573;55.922;37.540;2023-02-16T03:31:50;9.88;;;4.88;;
30862;SDS011;17573;55.922;37.540;2023-02-16T03:34:17;9.00;;;5.60;;
30862;SDS011;17573;55.922;37.540;2023-02-16T03:36:46;5.68;;;5.18;;
30862;SDS011;17573;55.922;37.540;2023-02-16T03:39:14;6.47;;;5.22;;
30862;SDS011;17573;55.922;37.540;2023-02-16T03:41:47;6.13;;;5.53;;
30862;SDS011;17573;55.922;37.540;2023-02-16T03:44:14;6.85;;;5.45;;
30862;SDS011;17573;55.922;37.540;2023-02-16T03:46:40;11.60;;;5.45;;
30862;SDS011;17573;55.922;37.540;2023-02-16T03:49:06;7.20;;;6.35;;
30862;SDS011;17573;55.922;37.540;2023-02-16T03:51:32;6.47;;;5.80;;
30862;SDS011;17573;55.922;37.540;2023-02-16T03:53:58;7.47;;;6.72;;
30862;SDS011;17573;55.922;37.540;2023-02-16T03:56:24;8.55;;;6.70;;
30862;SDS011;17573;55.922;37.540;2023-02-16T03:58:50;6.82;;;5.47;;
30862;SDS011;17573;55.922;37.540;2023-02-16T04:01:16;9.52;;;6.75;;
30862;SDS011;17573;55.922;37.540;2023-02-16T04:03:42;8.68;;;6.78;;
30862;SDS011;17573;55.922;37.540;2023-02-16T04:06:07;9.48;;;5.70;;
30862;SDS011;17573;55.922;37.540;2023-02-16T04:08:33;9.82;;;6.60;;
30862;SDS011;17573;55.922;37.540;2023-02-16T04:10:59;10.70;;;6.45;;
30862;SDS011;17573;55.922;37.540;2023-02-16T04:13:25;9.35;;;6.97;;
30862;SDS011;17573;55.922;37.540;2023-02-16T04:15:51;9.00;;;6.97;;
30862;SDS011;17573;55.922;37.540;2023-02-16T04:18:17;6.45;;;5.60;;
30862;SDS011;17573;55.922;37.540;2023-02-16T04:20:42;6.72;;;6.03;;
30862;SDS011;17573;55.922;37.540;2023-02-16T04:23:08;13.30;;;5.65;;
30862;SDS011;17573;55.922;37.540;2023-02-16T04:25:34;7.60;;;6.53;;
30862;SDS011;17573;55.922;37.540;2023-02-16T04:28:00;7.25;;;6.03;;
30862;SDS011;17573;55.922;37.540;2023-02-16T04:30:28;8.57;;;6.25;;
30862;SDS011;17573;55.922;37.540;2023-02-16T04:32:54;10.02;;;6.60;;
30862;SDS011;17573;55.922;37.540;2023-02-16T04:35:21;6.78;;;5.97;;
30862;SDS011;17573;55.922;37.540;2023-02-16T04:37:47;7.43;;;6.35;;
30862;SDS011;17573;55.922;37.540;2023-02-16T04:40:13;6.72;;;5.97;;
30862;SDS011;17573;55.922;37.540;2023-02-16T04:42:41;6.88;;;5.32;;
30862;SDS011;17573;55.922;37.540;2023-02-16T04:45:07;6.82;;;6.10;;
30862;SDS011;17573;55.922;37.540;2023-02-16T04:47:33;7.82;;;5.03;;
30862;SDS011;17573;55.922;37.540;2023-02-16T04:49:59;8.38;;;5.65;;
30862;SDS011;17573;55.922;37.540;2023-02-16T04:52:25;7.13;;;6.32;;
30862;SDS011;17573;55.922;37.540;2023-02-16T04:54:51;6.75;;;6.13;;
30862;SDS011;17573;55.922;37.540;2023-02-16T04:57:17;8.13;;;5.88;;
30862;SDS011;17573;55.922;37.540;2023-02-16T04:59:44;9.45;;;5.82;;
30862;SDS011;17573;55.922;37.540;2023-02-16T05:02:09;8.45;;;5.93;;
30862;SDS011;17573;55.922;37.540;2023-02-16T05:04:35;8.48;;;5.90;;
30862;SDS011;17573;55.922;37.540;2023-02-16T05:07:01;10.00;;;6.70;;
30862;SDS011;17573;55.922;37.540;2023-02-16T05:09:27;10.68;;;6.47;;
30862;SDS011;17573;55.922;37.540;2023-02-16T05:11:53;15.27;;;8.07;;
30862;SDS011;17573;55.922;37.540;2023-02-16T05:14:38;13.23;;;6.38;;
30862;SDS011;17573;55.922;37.540;2023-02-16T05:17:07;10.57;;;7.78;;
30862;SDS011;17573;55.922;37.540;2023-02-16T05:19:34;10.77;;;7.88;;
30862;SDS011;17573;55.922;37.540;2023-02-16T05:22:00;18.05;;;7.97;;
30862;SDS011;17573;55.922;37.540;2023-02-16T05:24:26;16.30;;;6.65;;
30862;SDS011;17573;55.922;37.540;2023-02-16T05:26:52;14.10;;;7.32;;
30862;SDS011;17573;55.922;37.540;2023-02-16T05:29:17;23.83;;;8.55;;
30862;SDS011;17573;55.922;37.540;2023-02-16T05:31:43;14.65;;;8.95;;
30862;SDS011;17573;55.922;37.540;2023-02-16T05:34:09;10.98;;;8.15;;
30862;SDS011;17573;55.922;37.540;2023-02-16T05:36:35;11.95;;;7.30;;
30862;SDS011;17573;55.922;37.540;2023-02-16T05:39:01;9.50;;;7.93;;
30862;SDS011;17573;55.922;37.540;2023-02-16T05:41:27;11.07;;;7.30;;
30862;SDS011;17573;55.922;37.540;2023-02-16T05:43:57;15.68;;;7.38;;
30862;SDS011;17573;55.922;37.540;2023-02-16T05:46:24;16.58;;;8.50;;
30862;SDS011;17573;55.922;37.540;2023-02-16T05:48:50;11.88;;;7.63;;
30862;SDS011;17573;55.922;37.540;2023-02-16T05:51:17;12.18;;;8.07;;
30862;SDS011;17573;55.922;37.540;2023-02-16T05:53:44;8.02;;;6.28;;
30862;SDS011;17573;55.922;37.540;2023-02-16T05:56:10;10.25;;;7.40;;
30862;SDS011;17573;55.922;37.540;2023-02-16T05:58:36;8.55;;;6.43;;
30862;SDS011;17573;55.922;37.540;2023-02-16T06:01:02;7.80;;;7.10;;
30862;SDS011;17573;55.922;37.540;2023-02-16T06:03:28;9.45;;;7.38;;
30862;SDS011;17573;55.922;37.540;2023-02-16T06:05:55;7.88;;;6.13;;
30862;SDS011;17573;55.922;37.540;2023-02-16T06:08:22;12.02;;;6.60;;
30862;SDS011;17573;55.922;37.540;2023-02-16T06:10:48;6.50;;;5.88;;
30862;SDS011;17573;55.922;37.540;2023-02-16T06:13:14;11.07;;;7.32;;
30862;SDS011;17573;55.922;37.540;2023-02-16T06:15:40;9.50;;;6.38;;
30862;SDS011;17573;55.922;37.540;2023-02-16T06:18:06;7.88;;;6.55;;
30862;SDS011;17573;55.922;37.540;2023-02-16T06:20:33;15.98;;;9.27;;
30862;SDS011;17573;55.922;37.540;2023-02-16T06:22:58;11.45;;;6.75;;
30862;SDS011;17573;55.922;37.540;2023-02-16T06:25:24;11.40;;;8.00;;
30862;SDS011;17573;55.922;37.540;2023-02-16T06:27:50;9.80;;;6.30;;
30862;SDS011;17573;55.922;37.540;2023-02-16T06:30:17;11.10;;;7.53;;
30862;SDS011;17573;55.922;37.540;2023-02-16T06:32:43;8.23;;;6.28;;
30862;SDS011;17573;55.922;37.540;2023-02-16T06:35:09;8.95;;;6.05;;
30862;SDS011;17573;55.922;37.540;2023-02-16T06:37:35;8.50;;;6.10;;
30862;SDS011;17573;55.922;37.540;2023-02-16T06:40:01;9.23;;;6.93;;
30862;SDS011;17573;55.922;37.540;2023-02-16T06:42:29;11.70;;;6.38;;
30862;SDS011;17573;55.922;37.540;2023-02-16T06:44:54;7.00;;;6.15;;
30862;SDS011;17573;55.922;37.540;2023-02-16T06:47:20;6.38;;;5.22;;
30862;SDS011;17573;55.922;37.540;2023-02-16T06:49:46;7.75;;;5.78;;
30862;SDS011;17573;55.922;37.540;2023-02-16T06:52:12;11.63;;;5.30;;
30862;SDS011;17573;55.922;37.540;2023-02-16T06:54:37;8.43;;;4.97;;
30862;SDS011;17573;55.922;37.540;2023-02-16T06:57:03;9.10;;;5.43;;
30862;SDS011;17573;55.922;37.540;2023-02-16T06:59:29;10.75;;;5.78;;
30862;SDS011;17573;55.922;37.540;2023-02-16T07:01:55;7.38;;;6.55;;
30862;SDS011;17573;55.922;37.540;2023-02-16T07:04:21;7.22;;;6.47;;
30862;SDS011;17573;55.922;37.540;2023-02-16T07:06:47;7.43;;;5.18;;
30862;SDS011;17573;55.922;37.540;2023-02-16T07:09:12;8.60;;;4.95;;
30862;SDS011;17573;55.922;37.540;2023-02-16T07:11:38;7.43;;;5.95;;
30862;SDS011;17573;55.922;37.540;2023-02-16T07:14:04;5.85;;;4.50;;
30862;SDS011;17573;55.922;37.540;2023-02-16T07:16:30;7.63;;;5.30;;
30862;SDS011;17573;55.922;37.540;2023-02-16T07:18:56;5.90;;;4.93;;
30862;SDS011;17573;55.922;37.540;2023-02-16T07:21:22;6.03;;;5.50;;
30862;SDS011;17573;55.922;37.540;2023-02-16T07:23:48;7.45;;;6.57;;
30862;SDS011;17573;55.922;37.540;2023-02-16T07:26:13;6.82;;;5.80;;
30862;SDS011;17573;55.922;37.540;2023-02-16T07:28:39;6.75;;;5.78;;
30862;SDS011;17573;55.922;37.540;2023-02-16T07:31:06;6.32;;;5.50;;
30862;SDS011;17573;55.922;37.540;2023-02-16T07:33:36;16.13;;;6.57;;
30862;SDS011;17573;55.922;37.540;2023-02-16T07:36:02;6.18;;;5.38;;
30862;SDS011;17573;55.922;37.540;2023-02-16T07:38:28;9.80;;;6.30;;
30862;SDS011;17573;55.922;37.540;2023-02-16T07:40:55;7.43;;;6.60;;
30862;SDS011;17573;55.922;37.540;2023-02-16T07:43:22;10.73;;;6.78;;
30862;SDS011;17573;55.922;37.540;2023-02-16T07:45:48;14.70;;;6.30;;
30862;SDS011;17573;55.922;37.540;2023-02-16T07:48:14;7.75;;;5.75;;
30862;SDS011;17573;55.922;37.540;2023-02-16T07:50:41;7.35;;;6.35;;
30862;SDS011;17573;55.922;37.540;2023-02-16T07:53:07;7.68;;;5.88;;
30862;SDS011;17573;55.922;37.540;2023-02-16T07:55:37;9.02;;;5.07;;
30862;SDS011;17573;55.922;37.540;2023-02-16T07:58:05;6.78;;;5.10;;
30862;SDS011;17573;55.922;37.540;2023-02-16T08:00:31;6.80;;;6.10;;
30862;SDS011;17573;55.922;37.540;2023-02-16T08:02:57;6.22;;;4.95;;
30862;SDS011;17573;55.922;37.540;2023-02-16T08:05:23;5.53;;;5.00;;
30862;SDS011;17573;55.922;37.540;2023-02-16T08:07:49;6.93;;;5.53;;
30862;SDS011;17573;55.922;37.540;2023-02-16T08:10:15;7.65;;;6.45;;
30862;SDS011;17573;55.922;37.540;2023-02-16T08:12:40;5.97;;;4.90;;
30862;SDS011;17573;55.922;37.540;2023-02-16T08:15:07;8.68;;;5.70;;
30862;SDS011;17573;55.922;37.540;2023-02-16T08:17:34;6.63;;;4.85;;
30862;SDS011;17573;55.922;37.540;2023-02-16T08:20:00;5.68;;;4.50;;
30862;SDS011;17573;55.922;37.540;2023-02-16T08:22:28;7.68;;;6.10;;
30862;SDS011;17573;55.922;37.540;2023-02-16T08:24:54;13.60;;;10.00;;
30862;SDS011;17573;55.922;37.540;2023-02-16T08:27:19;10.30;;;6.13;;
30862;SDS011;17573;55.922;37.540;2023-02-16T08:29:46;5.72;;;4.88;;
30862;SDS011;17573;55.922;37.540;2023-02-16T08:32:12;6.03;;;5.43;;
30862;SDS011;17573;55.922;37.540;2023-02-16T08:34:38;7.63;;;5.18;;
30862;SDS011;17573;55.922;37.540;2023-02-16T08:37:04;5.72;;;4.78;;
30862;SDS011;17573;55.922;37.540;2023-02-16T08:39:31;6.53;;;4.78;;
30862;SDS011;17573;55.922;37.540;2023-02-16T08:41:58;6.53;;;5.45;;
30862;SDS011;17573;55.922;37.540;2023-02-16T08:44:26;7.75;;;5.68;;
30862;SDS011;17573;55.922;37.540;2023-02-16T08:46:54;5.68;;;5.10;;
30862;SDS011;17573;55.922;37.540;2023-02-16T08:49:21;7.60;;;5.57;;
30862;SDS011;17573;55.922;37.540;2023-02-16T08:51:49;6.80;;;5.80;;
30862;SDS011;17573;55.922;37.540;2023-02-16T08:54:20;6.47;;;5.45;;
30862;SDS011;17573;55.922;37.540;2023-02-16T08:56:48;6.43;;;5.13;;
30862;SDS011;17573;55.922;37.540;2023-02-16T08:59:16;8.10;;;5.93;;
30862;SDS011;17573;55.922;37.540;2023-02-16T09:01:42;10.18;;;5.22;;
30862;SDS011;17573;55.922;37.540;2023-02-16T09:04:09;14.68;;;6.10;;
30862;SDS011;17573;55.922;37.540;2023-02-16T09:06:36;6.15;;;5.65;;
30862;SDS011;17573;55.922;37.540;2023-02-16T09:09:04;8.77;;;5.45;;
30862;SDS011;17573;55.922;37.540;2023-02-16T09:11:30;7.25;;;5.85;;
30862;SDS011;17573;55.922;37.540;2023-02-16T09:13:57;7.15;;;4.50;;
30862;SDS011;17573;55.922;37.540;2023-02-16T09:16:23;5.57;;;4.68;;
30862;SDS011;17573;55.922;37.540;2023-02-16T09:18:52;5.40;;;4.90;;
30862;SDS011;17573;55.922;37.540;2023-02-16T09:21:19;5.47;;;4.97;;
30862;SDS011;17573;55.922;37.540;2023-02-16T09:23:47;8.77;;;5.25;;
30862;SDS011;17573;55.922;37.540;2023-02-16T09:26:15;7.30;;;6.60;;
30862;SDS011;17573;55.922;37.540;2023-02-16T09:28:42;5.93;;;5.00;;
30862;SDS011;17573;55.922;37.540;2023-02-16T09:31:12;5.78;;;5.28;;
30862;SDS011;17573;55.922;37.540;2023-02-16T09:33:44;7.78;;;5.07;;
30862;SDS011;17573;55.922;37.540;2023-02-16T09:36:11;8.38;;;5.70;;
30862;SDS011;17573;55.922;37.540;2023-02-16T09:38:38;6.35;;;5.20;;
30862;SDS011;17573;55.922;37.540;2023-02-16T09:41:13;8.85;;;4.72;;
30862;SDS011;17573;55.922;37.540;2023-02-16T09:43:48;7.20;;;4.57;;
30862;SDS011;17573;55.922;37.540;2023-02-16T09:46:20;7.32;;;5.57;;
30862;SDS011;17573;55.922;37.540;2023-02-16T09:48:47;6.25;;;5.55;;
30862;SDS011;17573;55.922;37.540;2023-02-16T09:51:22;6.07;;;4.80;;
30862;SDS011;17573;55.922;37.540;2023-02-16T09:56:49;5.70;;;5.13;;
30862;SDS011;17573;55.922;37.540;2023-02-16T09:59:43;6.32;;;5.60;;
30862;SDS011;17573;55.922;37.540;2023-02-16T10:05:17;5.28;;;4.50;;
30862;SDS011;17573;55.922;37.540;2023-02-16T10:10:37;8.65;;;5.57;;
30862;SDS011;17573;55.922;37.540;2023-02-16T10:13:53;8.63;;;4.70;;
30862;SDS011;17573;55.922;37.540;2023-02-16T10:16:05;6.35;;;5.70;;
30862;SDS011;17573;55.922;37.540;2023-02-16T10:18:37;6.10;;;5.35;;
30862;SDS011;17573;55.922;37.540;2023-02-16T10:21:07;7.75;;;5.05;;
30862;SDS011;17573;55.922;37.540;2023-02-16T10:23:43;7.35;;;5.20;;
30862;SDS011;17573;55.922;37.540;2023-02-16T10:28:48;6.80;;;5.57;;
30862;SDS011;17573;55.922;37.540;2023-02-16T10:39:32;9.27;;;5.82;;
30862;SDS011;17573;55.922;37.540;2023-02-16T10:44:54;6.80;;;5.35;;
30862;SDS011;17573;55.922;37.540;2023-02-16T10:47:38;7.15;;;5.40;;
30862;SDS011;17573;55.922;37.540;2023-02-16T10:50:09;16.20;;;7.78;;
30862;SDS011;17573;55.922;37.540;2023-02-16T10:52:40;6.68;;;5.07;;
30862;SDS011;17573;55.922;37.540;2023-02-16T10:55:06;7.90;;;5.82;;
30862;SDS011;17573;55.922;37.540;2023-02-16T10:57:33;6.57;;;5.72;;
30862;SDS011;17573;55.922;37.540;2023-02-16T11:00:00;10.35;;;6.18;;
30862;SDS011;17573;55.922;37.540;2023-02-16T11:02:37;5.22;;;4.82;;
30862;SDS011;17573;55.922;37.540;2023-02-16T11:07:54;6.88;;;4.15;;
30862;SDS011;17573;55.922;37.540;2023-02-16T11:10:33;6.15;;;5.57;;
30862;SDS011;17573;55.922;37.540;2023-02-16T11:13:01;10.68;;;5.63;;
30862;SDS011;17573;55.922;37.540;2023-02-16T11:15:27;9.13;;;5.22;;
30862;SDS011;17573;55.922;37.540;2023-02-16T11:17:59;6.05;;;4.93;;
30862;SDS011;17573;55.922;37.540;2023-02-16T11:20:30;7.65;;;5.93;;
30862;SDS011;17573;55.922;37.540;2023-02-16T11:25:56;10.02;;;6.07;;
30862;SDS011;17573;55.922;37.540;2023-02-16T11:34:02;7.68;;;6.25;;
30862;SDS011;17573;55.922;37.540;2023-02-16T11:36:33;8.45;;;5.93;;
30862;SDS011;17573;55.922;37.540;2023-02-16T11:41:33;10.68;;;7.13;;
30862;SDS011;17573;55.922;37.540;2023-02-16T11:44:00;9.30;;;6.75;;
30862;SDS011;17573;55.922;37.540;2023-02-16T11:46:27;8.85;;;5.60;;
30862;SDS011;17573;55.922;37.540;2023-02-16T11:49:27;8.98;;;5.93;;
30862;SDS011;17573;55.922;37.540;2023-02-16T11:51:56;6.80;;;5.60;;
30862;SDS011;17573;55.922;37.540;2023-02-16T11:54:22;8.13;;;6.68;;
30862;SDS011;17573;55.922;37.540;2023-02-16T11:57:01;8.48;;;6.85;;
30862;SDS011;17573;55.922;37.540;2023-02-16T11:59:30;7.55;;;5.88;;
30862;SDS011;17573;55.922;37.540;2023-02-16T12:02:11;8.85;;;6.85;;
30862;SDS011;17573;55.922;37.540;2023-02-16T12:07:36;6.85;;;5.63;;
30862;SDS011;17573;55.922;37.540;2023-02-16T12:13:02;14.55;;;6.60;;
30862;SDS011;17573;55.922;37.540;2023-02-16T12:15:48;6.00;;;5.40;;
30862;SDS011;17573;55.922;37.540;2023-02-16T12:18:29;8.70;;;6.22;;
30862;SDS011;17573;55.922;37.540;2023-02-16T12:21:11;5.95;;;4.82;;
30862;SDS011;17573;55.922;37.540;2023-02-16T12:23:54;7.03;;;5.63;;
30862;SDS011;17573;55.922;37.540;2023-02-16T12:29:21;7.40;;;6.25;;
30862;SDS011;17573;55.922;37.540;2023-02-16T12:32:15;6.47;;;5.95;;
30862;SDS011;17573;55.922;37.540;2023-02-16T12:37:59;6.15;;;5.55;;
30862;SDS011;17573;55.922;37.540;2023-02-16T12:40:32;15.52;;;10.98;;
30862;SDS011;17573;55.922;37.540;2023-02-16T12:45:52;7.78;;;6.95;;
30862;SDS011;17573;55.922;37.540;2023-02-16T12:48:34;14.65;;;6.63;;
30862;SDS011;17573;55.922;37.540;2023-02-16T12:51:06;9.77;;;6.00;;
30862;SDS011;17573;55.922;37.540;2023-02-16T12:53:45;8.52;;;7.28;;
30862;SDS011;17573;55.922;37.540;2023-02-16T12:56:19;5.97;;;5.47;;
30862;SDS011;17573;55.922;37.540;2023-02-16T12:58:53;6.20;;;5.57;;
30862;SDS011;17573;55.922;37.540;2023-02-16T13:01:28;8.05;;;6.13;;
30862;SDS011;17573;55.922;37.540;2023-02-16T13:03:56;7.32;;;5.78;;
30862;SDS011;17573;55.922;37.540;2023-02-16T13:06:28;7.35;;;6.60;;
30862;SDS011;17573;55.922;37.540;2023-02-16T13:15:12;7.60;;;6.10;;
30862;SDS011;17573;55.922;37.540;2023-02-16T13:17:46;7.07;;;6.38;;
30862;SDS011;17573;55.922;37.540;2023-02-16T13:20:14;7.30;;;6.28;;
30862;SDS011;17573;55.922;37.540;2023-02-16T13:25:26;7.35;;;6.65;;
30862;SDS011;17573;55.922;37.540;2023-02-16T13:36:31;7.88;;;6.88;;
30862;SDS011;17573;55.922;37.540;2023-02-16T13:47:00;6.13;;;5.50;;
30862;SDS011;17573;55.922;37.540;2023-02-16T13:52:06;6.25;;;5.65;;
30862;SDS011;17573;55.922;37.540;2023-02-16T13:54:40;11.95;;;8.70;;
30862;SDS011;17573;55.922;37.540;2023-02-16T14:02:10;8.68;;;6.57;;
30862;SDS011;17573;55.922;37.540;2023-02-16T14:12:03;8.55;;;6.50;;
30862;SDS011;17573;55.922;37.540;2023-02-16T14:19:47;10.60;;;7.38;;
30862;SDS011;17573;55.922;37.540;2023-02-16T14:22:17;9.60;;;6.97;;
30862;SDS011;17573;55.922;37.540;2023-02-16T14:24:54;14.85;;;8.30;;
30862;SDS011;17573;55.922;37.540;2023-02-16T14:32:56;9.98;;;7.55;;
30862;SDS011;17573;55.922;37.540;2023-02-16T14:35:28;8.18;;;7.15;;
30862;SDS011;17573;55.922;37.540;2023-02-16T14:40:58;12.02;;;8.00;;
30862;SDS011;17573;55.922;37.540;2023-02-16T14:57:20;12.50;;;7.95;;
30862;SDS011;17573;55.922;37.540;2023-02-16T15:00:09;9.80;;;7.78;;
30862;SDS011;17573;55.922;37.540;2023-02-16T15:02:55;10.57;;;8.90;;
30862;SDS011;17573;55.922;37.540;2023-02-16T15:05:30;16.05;;;9.35;;
30862;SDS011;17573;55.922;37.540;2023-02-16T15:10:34;12.38;;;8.85;;
30862;SDS011;17573;55.922;37.540;2023-02-16T15:13:01;13.30;;;8.95;;
30862;SDS011;17573;55.922;37.540;2023-02-16T15:17:59;15.50;;;8.90;;
30862;SDS011;17573;55.922;37.540;2023-02-16T15:20:32;11.35;;;8.07;;
30862;SDS011;17573;55.922;37.540;2023-02-16T15:23:01;13.68;;;8.40;;
30862;SDS011;17573;55.922;37.540;2023-02-16T15:25:30;11.45;;;8.60;;
30862;SDS011;17573;55.922;37.540;2023-02-16T15:28:02;15.50;;;9.38;;
30862;SDS011;17573;55.922;37.540;2023-02-16T15:30:47;14.88;;;9.82;;
30862;SDS011;17573;55.922;37.540;2023-02-16T15:35:51;15.88;;;9.15;;
30862;SDS011;17573;55.922;37.540;2023-02-16T15:38:24;11.35;;;8.57;;
30862;SDS011;17573;55.922;37.540;2023-02-16T15:41:04;14.98;;;10.35;;
30862;SDS011;17573;55.922;37.540;2023-02-16T15:43:36;16.20;;;10.00;;
30862;SDS011;17573;55.922;37.540;2023-02-16T15:46:12;16.23;;;10.43;;
30862;SDS011;17573;55.922;37.540;2023-02-16T15:48:58;14.18;;;9.05;;
30862;SDS011;17573;55.922;37.540;2023-02-16T15:51:35;12.10;;;9.02;;
30862;SDS011;17573;55.922;37.540;2023-02-16T15:54:03;13.98;;;9.27;;
30862;SDS011;17573;55.922;37.540;2023-02-16T16:04:34;16.35;;;9.93;;
30862;SDS011;17573;55.922;37.540;2023-02-16T16:07:04;14.30;;;9.63;;
30862;SDS011;17573;55.922;37.540;2023-02-16T16:09:31;14.18;;;9.70;;
30862;SDS011;17573;55.922;37.540;2023-02-16T16:12:03;12.10;;;8.80;;
30862;SDS011;17573;55.922;37.540;2023-02-16T16:14:35;15.70;;;10.10;;
30862;SDS011;17573;55.922;37.540;2023-02-16T16:17:23;16.08;;;9.57;;
30862;SDS011;17573;55.922;37.540;2023-02-16T16:19:52;14.50;;;9.40;;
30862;SDS011;17573;55.922;37.540;2023-02-16T16:22:40;17.35;;;12.55;;
30862;SDS011;17573;55.922;37.540;2023-02-16T16:27:52;16.15;;;11.32;;
30862;SDS011;17573;55.922;37.540;2023-02-16T16:32:44;18.40;;;12.05;;
30862;SDS011;17573;55.922;37.540;2023-02-16T16:35:32;17.50;;;11.35;;
30862;SDS011;17573;55.922;37.540;2023-02-16T16:37:58;19.90;;;11.20;;
30862;SDS011;17573;55.922;37.540;2023-02-16T16:40:27;18.17;;;11.02;;
30862;SDS011;17573;55.922;37.540;2023-02-16T16:48:00;18.52;;;12.13;;
30862;SDS011;17573;55.922;37.540;2023-02-16T16:50:33;20.75;;;11.95;;
30862;SDS011;17573;55.922;37.540;2023-02-16T16:53:01;15.18;;;11.43;;
30862;SDS011;17573;55.922;37.540;2023-02-16T16:55:28;22.67;;;11.50;;
30862;SDS011;17573;55.922;37.540;2023-02-16T16:57:57;19.10;;;12.10;;
30862;SDS011;17573;55.922;37.540;2023-02-16T17:00:30;21.10;;;11.95;;
30862;SDS011;17573;55.922;37.540;2023-02-16T17:03:03;18.33;;;12.52;;
30862;SDS011;17573;55.922;37.540;2023-02-16T17:05:31;21.58;;;12.55;;
30862;SDS011;17573;55.922;37.540;2023-02-16T17:07:57;16.48;;;12.32;;
30862;SDS011;17573;55.922;37.540;2023-02-16T17:10:23;21.25;;;12.73;;
30862;SDS011;17573;55.922;37.540;2023-02-16T17:12:50;17.65;;;11.57;;
30862;SDS011;17573;55.922;37.540;2023-02-16T17:15:23;18.65;;;11.43;;
30862;SDS011;17573;55.922;37.540;2023-02-16T17:17:54;18.67;;;11.18;;
30862;SDS011;17573;55.922;37.540;2023-02-16T17:20:20;18.20;;;11.52;;
30862;SDS011;17573;55.922;37.540;2023-02-16T17:22:47;18.08;;;11.77;;
30862;SDS011;17573;55.922;37.540;2023-02-16T17:25:13;21.48;;;13.25;;
30862;SDS011;17573;55.922;37.540;2023-02-16T17:27:39;18.17;;;12.63;;
30862;SDS011;17573;55.922;37.540;2023-02-16T17:30:05;19.58;;;12.10;;
30862;SDS011;17573;55.922;37.540;2023-02-16T17:32:31;22.40;;;12.60;;
30862;SDS011;17573;55.922;37.540;2023-02-16T17:34:57;19.25;;;12.68;;
30862;SDS011;17573;55.922;37.540;2023-02-16T17:37:23;21.92;;;12.15;;
30862;SDS011;17573;55.922;37.540;2023-02-16T17:39:49;17.25;;;12.85;;
30862;SDS011;17573;55.922;37.540;2023-02-16T17:42:15;21.13;;;13.60;;